sensor_id;sensor_type;location;lat;lon;timestamp;P1;durP1;ratioP1;P2;durP2;ratioP2
60068;SDS011;45945;53.350;55.922;2023-05-10T00:00:59;26.45;;;18.02;;
60068;SDS011;45945;53.350;55.922;2023-05-10T00:02:00;29.90;;;19.80;;
60068;SDS011;45945;53.350;55.922;2023-05-10T00:03:01;28.92;;;20.00;;
60068;SDS011;45945;53.350;55.922;2023-05-10T00:04:02;31.38;;;20.13;;
60068;SDS011;45945;53.350;55.922;2023-05-10T00:05:03;28.13;;;19.92;;
60068;SDS011;45945;53.350;55.922;2023-05-10T00:06:05;32.78;;;19.80;;
60068;SDS011;45945;53.350;55.922;2023-05-10T00:07:06;31.65;;;20.80;;
60068;SDS011;45945;53.350;55.922;2023-05-10T00:08:07;32.58;;;21.35;;
60068;SDS011;45945;53.350;55.922;2023-05-10T00:09:08;29.73;;;20.95;;
60068;SDS011;45945;53.350;55.922;2023-05-10T00:10:09;27.95;;;20.15;;
60068;SDS011;45945;53.350;55.922;2023-05-10T00:11:10;32.15;;;21.83;;
60068;SDS011;45945;53.350;55.922;2023-05-10T00:12:10;29.80;;;21.45;;
60068;SDS011;45945;53.350;55.922;2023-05-10T00:13:11;33.75;;;20.80;;
60068;SDS011;45945;53.350;55.922;2023-05-10T00:14:12;30.75;;;18.33;;
60068;SDS011;45945;53.350;55.922;2023-05-10T00:15:13;35.08;;;23.13;;
60068;SDS011;45945;53.350;55.922;2023-05-10T00:16:14;30.98;;;22.15;;
60068;SDS011;45945;53.350;55.922;2023-05-10T00:17:15;34.17;;;23.77;;
60068;SDS011;45945;53.350;55.922;2023-05-10T00:18:16;35.38;;;21.95;;
60068;SDS011;45945;53.350;55.922;2023-05-10T00:19:17;34.72;;;23.50;;
60068;SDS011;45945;53.350;55.922;2023-05-10T00:20:18;29.05;;;19.50;;
60068;SDS011;45945;53.350;55.922;2023-05-10T00:21:19;32.58;;;22.20;;
60068;SDS011;45945;53.350;55.922;2023-05-10T00:22:20;30.98;;;23.05;;
60068;SDS011;45945;53.350;55.922;2023-05-10T00:23:21;31.83;;;21.38;;
60068;SDS011;45945;53.350;55.922;2023-05-10T00:24:22;32.28;;;22.30;;
60068;SDS011;45945;53.350;55.922;2023-05-10T00:25:23;34.28;;;22.08;;
60068;SDS011;45945;53.350;55.922;2023-05-10T00:26:23;34.80;;;23.95;;
60068;SDS011;45945;53.350;55.922;2023-05-10T00:27:27;30.35;;;21.88;;
60068;SDS011;45945;53.350;55.922;2023-05-10T00:28:31;34.33;;;22.05;;
60068;SDS011;45945;53.350;55.922;2023-05-10T00:29:31;31.50;;;22.70;;
60068;SDS011;45945;53.350;55.922;2023-05-10T00:30:33;30.23;;;22.63;;
60068;SDS011;45945;53.350;55.922;2023-05-10T00:31:35;32.75;;;22.98;;
60068;SDS011;45945;53.350;55.922;2023-05-10T00:32:37;37.25;;;24.10;;
60068;SDS011;45945;53.350;55.922;2023-05-10T00:33:38;33.25;;;22.30;;
60068;SDS011;45945;53.350;55.922;2023-05-10T00:34:39;33.33;;;23.38;;
60068;SDS011;45945;53.350;55.922;2023-05-10T00:35:40;29.05;;;20.52;;
60068;SDS011;45945;53.350;55.922;2023-05-10T00:36:41;31.35;;;21.23;;
60068;SDS011;45945;53.350;55.922;2023-05-10T00:37:42;38.30;;;22.45;;
60068;SDS011;45945;53.350;55.922;2023-05-10T00:38:43;32.85;;;23.08;;
60068;SDS011;45945;53.350;55.922;2023-05-10T00:39:44;21.85;;;15.13;;
60068;SDS011;45945;53.350;55.922;2023-05-10T00:40:45;31.45;;;22.02;;
60068;SDS011;45945;53.350;55.922;2023-05-10T00:41:54;31.90;;;21.50;;
60068;SDS011;45945;53.350;55.922;2023-05-10T00:42:56;35.28;;;23.15;;
60068;SDS011;45945;53.350;55.922;2023-05-10T00:43:57;34.63;;;22.83;;
60068;SDS011;45945;53.350;55.922;2023-05-10T00:44:59;27.17;;;16.35;;
60068;SDS011;45945;53.350;55.922;2023-05-10T00:45:59;25.60;;;15.50;;
60068;SDS011;45945;53.350;55.922;2023-05-10T00:47:00;30.92;;;20.00;;
60068;SDS011;45945;53.350;55.922;2023-05-10T00:48:02;28.13;;;20.65;;
60068;SDS011;45945;53.350;55.922;2023-05-10T00:49:04;28.20;;;20.98;;
60068;SDS011;45945;53.350;55.922;2023-05-10T00:50:06;30.42;;;21.90;;
60068;SDS011;45945;53.350;55.922;2023-05-10T00:51:07;31.05;;;22.52;;
60068;SDS011;45945;53.350;55.922;2023-05-10T00:52:08;22.75;;;15.45;;
60068;SDS011;45945;53.350;55.922;2023-05-10T00:53:09;30.00;;;20.25;;
60068;SDS011;45945;53.350;55.922;2023-05-10T00:54:14;32.58;;;21.42;;
60068;SDS011;45945;53.350;55.922;2023-05-10T00:55:16;31.45;;;21.25;;
60068;SDS011;45945;53.350;55.922;2023-05-10T00:56:17;30.92;;;21.15;;
60068;SDS011;45945;53.350;55.922;2023-05-10T00:57:18;30.35;;;18.13;;
60068;SDS011;45945;53.350;55.922;2023-05-10T00:58:18;32.08;;;21.40;;
60068;SDS011;45945;53.350;55.922;2023-05-10T00:59:19;28.23;;;17.42;;
60068;SDS011;45945;53.350;55.922;2023-05-10T01:00:20;26.80;;;21.75;;
60068;SDS011;45945;53.350;55.922;2023-05-10T01:01:21;32.00;;;20.80;;
60068;SDS011;45945;53.350;55.922;2023-05-10T01:02:22;28.45;;;20.27;;
60068;SDS011;45945;53.350;55.922;2023-05-10T01:03:23;25.40;;;16.05;;
60068;SDS011;45945;53.350;55.922;2023-05-10T01:04:24;33.08;;;19.83;;
60068;SDS011;45945;53.350;55.922;2023-05-10T01:05:26;30.08;;;20.40;;
60068;SDS011;45945;53.350;55.922;2023-05-10T01:06:27;28.77;;;21.52;;
60068;SDS011;45945;53.350;55.922;2023-05-10T01:07:29;28.85;;;17.55;;
60068;SDS011;45945;53.350;55.922;2023-05-10T01:08:30;28.67;;;19.63;;
60068;SDS011;45945;53.350;55.922;2023-05-10T01:09:31;25.00;;;18.42;;
60068;SDS011;45945;53.350;55.922;2023-05-10T01:10:32;30.10;;;19.95;;
60068;SDS011;45945;53.350;55.922;2023-05-10T01:11:34;28.90;;;19.48;;
60068;SDS011;45945;53.350;55.922;2023-05-10T01:12:36;31.38;;;19.30;;
60068;SDS011;45945;53.350;55.922;2023-05-10T01:13:38;28.63;;;19.85;;
60068;SDS011;45945;53.350;55.922;2023-05-10T01:14:40;34.88;;;20.02;;
60068;SDS011;45945;53.350;55.922;2023-05-10T01:15:41;27.35;;;19.08;;
60068;SDS011;45945;53.350;55.922;2023-05-10T01:16:42;28.58;;;21.58;;
60068;SDS011;45945;53.350;55.922;2023-05-10T01:17:45;27.85;;;19.00;;
60068;SDS011;45945;53.350;55.922;2023-05-10T01:18:47;30.73;;;19.65;;
60068;SDS011;45945;53.350;55.922;2023-05-10T01:19:48;32.85;;;21.65;;
60068;SDS011;45945;53.350;55.922;2023-05-10T01:20:53;25.10;;;16.90;;
60068;SDS011;45945;53.350;55.922;2023-05-10T01:24:17;30.52;;;20.08;;
60068;SDS011;45945;53.350;55.922;2023-05-10T01:28:58;28.48;;;19.77;;
60068;SDS011;45945;53.350;55.922;2023-05-10T01:37:17;27.00;;;19.45;;
60068;SDS011;45945;53.350;55.922;2023-05-10T01:38:38;26.65;;;19.13;;
60068;SDS011;45945;53.350;55.922;2023-05-10T01:39:44;27.77;;;20.10;;
60068;SDS011;45945;53.350;55.922;2023-05-10T01:42:08;31.05;;;21.38;;
60068;SDS011;45945;53.350;55.922;2023-05-10T01:43:11;29.40;;;20.45;;
60068;SDS011;45945;53.350;55.922;2023-05-10T01:44:19;28.98;;;17.85;;
60068;SDS011;45945;53.350;55.922;2023-05-10T01:45:24;29.98;;;18.48;;
60068;SDS011;45945;53.350;55.922;2023-05-10T01:46:33;28.77;;;18.40;;
60068;SDS011;45945;53.350;55.922;2023-05-10T01:47:40;30.33;;;21.08;;
60068;SDS011;45945;53.350;55.922;2023-05-10T01:48:48;27.30;;;19.70;;
60068;SDS011;45945;53.350;55.922;2023-05-10T01:49:52;32.97;;;22.00;;
60068;SDS011;45945;53.350;55.922;2023-05-10T01:50:54;29.00;;;20.70;;
60068;SDS011;45945;53.350;55.922;2023-05-10T01:51:57;27.10;;;19.88;;
60068;SDS011;45945;53.350;55.922;2023-05-10T01:53:00;28.15;;;19.10;;
60068;SDS011;45945;53.350;55.922;2023-05-10T01:54:02;29.17;;;20.05;;
60068;SDS011;45945;53.350;55.922;2023-05-10T01:55:11;28.90;;;20.45;;
60068;SDS011;45945;53.350;55.922;2023-05-10T01:56:13;30.23;;;20.40;;
60068;SDS011;45945;53.350;55.922;2023-05-10T01:57:15;30.20;;;19.75;;
60068;SDS011;45945;53.350;55.922;2023-05-10T01:58:21;29.60;;;19.15;;
60068;SDS011;45945;53.350;55.922;2023-05-10T01:59:23;28.77;;;18.80;;
60068;SDS011;45945;53.350;55.922;2023-05-10T02:00:27;27.25;;;19.73;;
60068;SDS011;45945;53.350;55.922;2023-05-10T02:01:28;30.98;;;20.55;;
60068;SDS011;45945;53.350;55.922;2023-05-10T02:02:29;27.98;;;20.05;;
60068;SDS011;45945;53.350;55.922;2023-05-10T02:03:30;27.85;;;21.17;;
60068;SDS011;45945;53.350;55.922;2023-05-10T02:04:33;25.60;;;18.02;;
60068;SDS011;45945;53.350;55.922;2023-05-10T02:05:35;30.67;;;21.48;;
60068;SDS011;45945;53.350;55.922;2023-05-10T02:06:38;32.53;;;20.77;;
60068;SDS011;45945;53.350;55.922;2023-05-10T02:07:39;29.92;;;19.98;;
60068;SDS011;45945;53.350;55.922;2023-05-10T02:08:41;28.10;;;18.73;;
60068;SDS011;45945;53.350;55.922;2023-05-10T02:09:44;28.10;;;17.95;;
60068;SDS011;45945;53.350;55.922;2023-05-10T02:10:50;29.75;;;21.27;;
60068;SDS011;45945;53.350;55.922;2023-05-10T02:11:51;29.50;;;19.70;;
60068;SDS011;45945;53.350;55.922;2023-05-10T02:12:52;30.75;;;20.85;;
60068;SDS011;45945;53.350;55.922;2023-05-10T02:13:54;29.67;;;19.38;;
60068;SDS011;45945;53.350;55.922;2023-05-10T02:15:05;30.55;;;21.08;;
60068;SDS011;45945;53.350;55.922;2023-05-10T02:16:06;30.35;;;20.73;;
60068;SDS011;45945;53.350;55.922;2023-05-10T02:17:08;27.20;;;20.98;;
60068;SDS011;45945;53.350;55.922;2023-05-10T02:18:09;28.70;;;19.98;;
60068;SDS011;45945;53.350;55.922;2023-05-10T02:19:11;29.63;;;20.80;;
60068;SDS011;45945;53.350;55.922;2023-05-10T02:20:13;26.90;;;19.58;;
60068;SDS011;45945;53.350;55.922;2023-05-10T02:21:16;27.58;;;19.42;;
60068;SDS011;45945;53.350;55.922;2023-05-10T02:22:17;29.30;;;20.98;;
60068;SDS011;45945;53.350;55.922;2023-05-10T02:23:19;28.10;;;20.17;;
60068;SDS011;45945;53.350;55.922;2023-05-10T02:24:20;27.90;;;19.55;;
60068;SDS011;45945;53.350;55.922;2023-05-10T02:25:22;28.52;;;19.75;;
60068;SDS011;45945;53.350;55.922;2023-05-10T02:26:23;33.90;;;21.13;;
60068;SDS011;45945;53.350;55.922;2023-05-10T02:27:25;30.85;;;21.23;;
60068;SDS011;45945;53.350;55.922;2023-05-10T02:28:27;32.40;;;21.70;;
60068;SDS011;45945;53.350;55.922;2023-05-10T02:29:29;29.73;;;20.85;;
60068;SDS011;45945;53.350;55.922;2023-05-10T02:30:32;31.70;;;21.27;;
60068;SDS011;45945;53.350;55.922;2023-05-10T02:31:34;34.58;;;21.30;;
60068;SDS011;45945;53.350;55.922;2023-05-10T02:32:35;30.38;;;21.20;;
60068;SDS011;45945;53.350;55.922;2023-05-10T02:33:38;28.45;;;20.35;;
60068;SDS011;45945;53.350;55.922;2023-05-10T02:34:40;28.65;;;19.95;;
60068;SDS011;45945;53.350;55.922;2023-05-10T02:35:41;29.98;;;21.17;;
60068;SDS011;45945;53.350;55.922;2023-05-10T02:36:43;31.15;;;21.50;;
60068;SDS011;45945;53.350;55.922;2023-05-10T02:37:44;32.95;;;21.80;;
60068;SDS011;45945;53.350;55.922;2023-05-10T02:38:45;28.17;;;20.98;;
60068;SDS011;45945;53.350;55.922;2023-05-10T02:39:48;29.65;;;20.30;;
60068;SDS011;45945;53.350;55.922;2023-05-10T02:40:49;32.42;;;21.05;;
60068;SDS011;45945;53.350;55.922;2023-05-10T02:41:51;29.65;;;21.02;;
60068;SDS011;45945;53.350;55.922;2023-05-10T02:42:54;32.50;;;21.40;;
60068;SDS011;45945;53.350;55.922;2023-05-10T02:43:55;31.45;;;20.52;;
60068;SDS011;45945;53.350;55.922;2023-05-10T02:45:02;29.25;;;21.17;;
60068;SDS011;45945;53.350;55.922;2023-05-10T02:46:08;28.15;;;20.02;;
60068;SDS011;45945;53.350;55.922;2023-05-10T02:47:10;27.52;;;21.48;;
60068;SDS011;45945;53.350;55.922;2023-05-10T02:48:10;33.08;;;21.40;;
60068;SDS011;45945;53.350;55.922;2023-05-10T02:49:11;30.42;;;20.73;;
60068;SDS011;45945;53.350;55.922;2023-05-10T02:50:13;29.85;;;21.02;;
60068;SDS011;45945;53.350;55.922;2023-05-10T02:51:14;29.02;;;20.33;;
60068;SDS011;45945;53.350;55.922;2023-05-10T02:52:28;31.80;;;21.33;;
60068;SDS011;45945;53.350;55.922;2023-05-10T02:53:33;30.08;;;21.38;;
60068;SDS011;45945;53.350;55.922;2023-05-10T02:54:38;28.55;;;21.00;;
60068;SDS011;45945;53.350;55.922;2023-05-10T02:55:40;29.70;;;21.15;;
60068;SDS011;45945;53.350;55.922;2023-05-10T02:56:47;28.63;;;21.05;;
60068;SDS011;45945;53.350;55.922;2023-05-10T02:57:54;31.60;;;20.95;;
60068;SDS011;45945;53.350;55.922;2023-05-10T02:58:57;29.17;;;20.60;;
60068;SDS011;45945;53.350;55.922;2023-05-10T02:59:58;32.03;;;21.40;;
60068;SDS011;45945;53.350;55.922;2023-05-10T03:01:00;32.80;;;20.48;;
60068;SDS011;45945;53.350;55.922;2023-05-10T03:02:02;29.52;;;20.13;;
60068;SDS011;45945;53.350;55.922;2023-05-10T03:03:03;31.80;;;20.73;;
60068;SDS011;45945;53.350;55.922;2023-05-10T03:04:04;31.70;;;21.98;;
60068;SDS011;45945;53.350;55.922;2023-05-10T03:05:06;33.80;;;21.80;;
60068;SDS011;45945;53.350;55.922;2023-05-10T03:06:07;34.42;;;21.40;;
60068;SDS011;45945;53.350;55.922;2023-05-10T03:07:09;28.95;;;21.02;;
60068;SDS011;45945;53.350;55.922;2023-05-10T03:08:12;30.45;;;21.35;;
60068;SDS011;45945;53.350;55.922;2023-05-10T03:09:13;34.50;;;21.05;;
60068;SDS011;45945;53.350;55.922;2023-05-10T03:10:16;30.13;;;22.13;;
60068;SDS011;45945;53.350;55.922;2023-05-10T03:12:29;32.15;;;22.95;;
60068;SDS011;45945;53.350;55.922;2023-05-10T03:13:35;31.85;;;21.00;;
60068;SDS011;45945;53.350;55.922;2023-05-10T03:14:42;31.05;;;21.52;;
60068;SDS011;45945;53.350;55.922;2023-05-10T03:16:49;30.05;;;21.20;;
60068;SDS011;45945;53.350;55.922;2023-05-10T03:17:55;33.38;;;21.33;;
60068;SDS011;45945;53.350;55.922;2023-05-10T03:19:09;33.75;;;22.77;;
60068;SDS011;45945;53.350;55.922;2023-05-10T03:20:16;30.40;;;20.15;;
60068;SDS011;45945;53.350;55.922;2023-05-10T03:21:20;34.35;;;20.85;;
60068;SDS011;45945;53.350;55.922;2023-05-10T03:22:25;32.35;;;20.95;;
60068;SDS011;45945;53.350;55.922;2023-05-10T03:23:27;29.98;;;21.00;;
60068;SDS011;45945;53.350;55.922;2023-05-10T03:24:30;28.90;;;21.58;;
60068;SDS011;45945;53.350;55.922;2023-05-10T03:25:34;30.70;;;22.02;;
60068;SDS011;45945;53.350;55.922;2023-05-10T03:26:37;32.85;;;22.15;;
60068;SDS011;45945;53.350;55.922;2023-05-10T03:27:44;32.45;;;21.10;;
60068;SDS011;45945;53.350;55.922;2023-05-10T03:28:46;31.15;;;19.52;;
60068;SDS011;45945;53.350;55.922;2023-05-10T03:29:48;31.90;;;21.65;;
60068;SDS011;45945;53.350;55.922;2023-05-10T03:30:49;33.28;;;20.85;;
60068;SDS011;45945;53.350;55.922;2023-05-10T03:31:50;30.98;;;21.05;;
60068;SDS011;45945;53.350;55.922;2023-05-10T03:32:51;30.20;;;21.10;;
60068;SDS011;45945;53.350;55.922;2023-05-10T03:33:52;33.70;;;22.15;;
60068;SDS011;45945;53.350;55.922;2023-05-10T03:35:00;30.10;;;21.58;;
60068;SDS011;45945;53.350;55.922;2023-05-10T03:36:02;32.13;;;20.55;;
60068;SDS011;45945;53.350;55.922;2023-05-10T03:37:03;31.30;;;21.40;;
60068;SDS011;45945;53.350;55.922;2023-05-10T03:38:06;31.23;;;19.92;;
60068;SDS011;45945;53.350;55.922;2023-05-10T03:39:06;31.02;;;21.17;;
60068;SDS011;45945;53.350;55.922;2023-05-10T03:40:11;33.20;;;22.58;;
60068;SDS011;45945;53.350;55.922;2023-05-10T03:41:15;32.22;;;21.83;;
60068;SDS011;45945;53.350;55.922;2023-05-10T03:42:15;31.25;;;21.65;;
60068;SDS011;45945;53.350;55.922;2023-05-10T03:43:18;38.33;;;22.08;;
60068;SDS011;45945;53.350;55.922;2023-05-10T03:44:19;32.05;;;22.35;;
60068;SDS011;45945;53.350;55.922;2023-05-10T03:45:20;34.97;;;23.60;;
60068;SDS011;45945;53.350;55.922;2023-05-10T03:46:21;31.92;;;22.40;;
60068;SDS011;45945;53.350;55.922;2023-05-10T03:47:22;31.05;;;22.45;;
60068;SDS011;45945;53.350;55.922;2023-05-10T03:48:23;33.53;;;23.20;;
60068;SDS011;45945;53.350;55.922;2023-05-10T03:49:24;32.22;;;22.60;;
60068;SDS011;45945;53.350;55.922;2023-05-10T03:50:25;31.02;;;22.60;;
60068;SDS011;45945;53.350;55.922;2023-05-10T03:51:28;35.85;;;22.77;;
60068;SDS011;45945;53.350;55.922;2023-05-10T03:52:31;32.63;;;22.27;;
60068;SDS011;45945;53.350;55.922;2023-05-10T03:53:32;34.72;;;23.13;;
60068;SDS011;45945;53.350;55.922;2023-05-10T03:54:33;33.92;;;21.80;;
60068;SDS011;45945;53.350;55.922;2023-05-10T03:55:34;31.38;;;22.08;;
60068;SDS011;45945;53.350;55.922;2023-05-10T03:56:36;33.72;;;22.92;;
60068;SDS011;45945;53.350;55.922;2023-05-10T03:57:37;30.92;;;22.25;;
60068;SDS011;45945;53.350;55.922;2023-05-10T03:58:39;34.38;;;23.15;;
60068;SDS011;45945;53.350;55.922;2023-05-10T03:59:40;32.83;;;23.45;;
60068;SDS011;45945;53.350;55.922;2023-05-10T04:00:41;33.90;;;23.40;;
60068;SDS011;45945;53.350;55.922;2023-05-10T04:01:45;33.05;;;21.88;;
60068;SDS011;45945;53.350;55.922;2023-05-10T04:02:46;29.55;;;21.08;;
60068;SDS011;45945;53.350;55.922;2023-05-10T04:03:51;33.85;;;21.98;;
60068;SDS011;45945;53.350;55.922;2023-05-10T04:04:52;35.63;;;21.45;;
60068;SDS011;45945;53.350;55.922;2023-05-10T04:06:02;33.83;;;22.13;;
60068;SDS011;45945;53.350;55.922;2023-05-10T04:07:03;31.08;;;20.40;;
60068;SDS011;45945;53.350;55.922;2023-05-10T04:08:04;29.90;;;19.92;;
60068;SDS011;45945;53.350;55.922;2023-05-10T04:09:05;30.88;;;20.95;;
60068;SDS011;45945;53.350;55.922;2023-05-10T04:10:06;29.35;;;21.70;;
60068;SDS011;45945;53.350;55.922;2023-05-10T04:11:08;30.80;;;22.13;;
60068;SDS011;45945;53.350;55.922;2023-05-10T04:12:09;29.23;;;20.65;;
60068;SDS011;45945;53.350;55.922;2023-05-10T04:13:10;29.92;;;23.70;;
60068;SDS011;45945;53.350;55.922;2023-05-10T04:14:11;31.38;;;20.25;;
60068;SDS011;45945;53.350;55.922;2023-05-10T04:15:12;29.77;;;21.48;;
60068;SDS011;45945;53.350;55.922;2023-05-10T04:16:13;30.75;;;22.08;;
60068;SDS011;45945;53.350;55.922;2023-05-10T04:17:14;29.92;;;22.15;;
60068;SDS011;45945;53.350;55.922;2023-05-10T04:18:15;30.58;;;21.92;;
60068;SDS011;45945;53.350;55.922;2023-05-10T04:19:16;29.20;;;20.80;;
60068;SDS011;45945;53.350;55.922;2023-05-10T04:20:16;31.80;;;22.80;;
60068;SDS011;45945;53.350;55.922;2023-05-10T04:21:17;27.70;;;18.60;;
60068;SDS011;45945;53.350;55.922;2023-05-10T04:22:18;30.88;;;21.33;;
60068;SDS011;45945;53.350;55.922;2023-05-10T04:23:19;29.73;;;19.85;;
60068;SDS011;45945;53.350;55.922;2023-05-10T04:24:20;30.08;;;20.85;;
60068;SDS011;45945;53.350;55.922;2023-05-10T04:25:21;30.60;;;20.45;;
60068;SDS011;45945;53.350;55.922;2023-05-10T04:26:22;34.30;;;23.08;;
60068;SDS011;45945;53.350;55.922;2023-05-10T04:27:22;32.72;;;22.48;;
60068;SDS011;45945;53.350;55.922;2023-05-10T04:28:23;29.63;;;21.70;;
60068;SDS011;45945;53.350;55.922;2023-05-10T04:29:24;29.35;;;18.65;;
60068;SDS011;45945;53.350;55.922;2023-05-10T04:30:25;28.98;;;18.55;;
60068;SDS011;45945;53.350;55.922;2023-05-10T04:31:29;31.48;;;21.27;;
60068;SDS011;45945;53.350;55.922;2023-05-10T04:32:30;29.85;;;21.10;;
60068;SDS011;45945;53.350;55.922;2023-05-10T04:33:31;29.50;;;21.55;;
60068;SDS011;45945;53.350;55.922;2023-05-10T04:34:33;29.23;;;21.25;;
60068;SDS011;45945;53.350;55.922;2023-05-10T04:35:34;30.70;;;21.08;;
60068;SDS011;45945;53.350;55.922;2023-05-10T04:36:36;22.48;;;14.05;;
60068;SDS011;45945;53.350;55.922;2023-05-10T04:37:37;29.65;;;20.67;;
60068;SDS011;45945;53.350;55.922;2023-05-10T04:38:38;30.20;;;18.00;;
60068;SDS011;45945;53.350;55.922;2023-05-10T04:39:38;31.67;;;21.63;;
60068;SDS011;45945;53.350;55.922;2023-05-10T04:40:40;31.00;;;20.85;;
60068;SDS011;45945;53.350;55.922;2023-05-10T04:41:40;32.55;;;20.90;;
60068;SDS011;45945;53.350;55.922;2023-05-10T04:42:41;31.75;;;20.70;;
60068;SDS011;45945;53.350;55.922;2023-05-10T04:43:42;30.02;;;20.77;;
60068;SDS011;45945;53.350;55.922;2023-05-10T04:44:43;31.27;;;21.70;;
60068;SDS011;45945;53.350;55.922;2023-05-10T04:45:44;30.40;;;21.83;;
60068;SDS011;45945;53.350;55.922;2023-05-10T04:46:45;31.38;;;22.33;;
60068;SDS011;45945;53.350;55.922;2023-05-10T04:47:46;28.67;;;21.55;;
60068;SDS011;45945;53.350;55.922;2023-05-10T04:48:47;29.23;;;20.50;;
60068;SDS011;45945;53.350;55.922;2023-05-10T04:49:48;29.10;;;20.77;;
60068;SDS011;45945;53.350;55.922;2023-05-10T04:50:49;30.60;;;20.90;;
60068;SDS011;45945;53.350;55.922;2023-05-10T04:51:49;33.15;;;22.55;;
60068;SDS011;45945;53.350;55.922;2023-05-10T04:52:50;28.40;;;19.00;;
60068;SDS011;45945;53.350;55.922;2023-05-10T04:53:51;27.25;;;19.63;;
60068;SDS011;45945;53.350;55.922;2023-05-10T04:54:52;30.48;;;20.95;;
60068;SDS011;45945;53.350;55.922;2023-05-10T04:55:53;32.15;;;21.00;;
60068;SDS011;45945;53.350;55.922;2023-05-10T04:56:54;28.33;;;20.40;;
60068;SDS011;45945;53.350;55.922;2023-05-10T04:57:55;30.42;;;19.95;;
60068;SDS011;45945;53.350;55.922;2023-05-10T04:58:57;28.35;;;20.27;;
60068;SDS011;45945;53.350;55.922;2023-05-10T04:59:59;27.80;;;18.55;;
60068;SDS011;45945;53.350;55.922;2023-05-10T05:01:07;27.38;;;17.70;;
60068;SDS011;45945;53.350;55.922;2023-05-10T05:02:08;29.25;;;21.10;;
60068;SDS011;45945;53.350;55.922;2023-05-10T05:03:09;28.63;;;20.27;;
60068;SDS011;45945;53.350;55.922;2023-05-10T05:04:10;31.95;;;21.92;;
60068;SDS011;45945;53.350;55.922;2023-05-10T05:05:11;31.25;;;22.73;;
60068;SDS011;45945;53.350;55.922;2023-05-10T05:06:12;33.83;;;22.77;;
60068;SDS011;45945;53.350;55.922;2023-05-10T05:07:13;31.90;;;22.17;;
60068;SDS011;45945;53.350;55.922;2023-05-10T05:08:14;30.88;;;22.45;;
60068;SDS011;45945;53.350;55.922;2023-05-10T05:09:14;32.22;;;21.48;;
60068;SDS011;45945;53.350;55.922;2023-05-10T05:10:15;30.65;;;21.75;;
60068;SDS011;45945;53.350;55.922;2023-05-10T05:11:17;31.90;;;20.75;;
60068;SDS011;45945;53.350;55.922;2023-05-10T05:12:18;34.33;;;24.05;;
60068;SDS011;45945;53.350;55.922;2023-05-10T05:13:19;30.10;;;22.42;;
60068;SDS011;45945;53.350;55.922;2023-05-10T05:14:19;34.58;;;24.20;;
60068;SDS011;45945;53.350;55.922;2023-05-10T05:15:21;31.88;;;23.60;;
60068;SDS011;45945;53.350;55.922;2023-05-10T05:16:22;30.83;;;22.45;;
60068;SDS011;45945;53.350;55.922;2023-05-10T05:17:23;31.55;;;23.27;;
60068;SDS011;45945;53.350;55.922;2023-05-10T05:18:24;29.42;;;23.00;;
60068;SDS011;45945;53.350;55.922;2023-05-10T05:19:25;31.15;;;20.40;;
60068;SDS011;45945;53.350;55.922;2023-05-10T05:20:26;31.65;;;22.55;;
60068;SDS011;45945;53.350;55.922;2023-05-10T05:21:27;31.95;;;20.77;;
60068;SDS011;45945;53.350;55.922;2023-05-10T05:22:28;34.55;;;24.42;;
60068;SDS011;45945;53.350;55.922;2023-05-10T05:23:28;33.58;;;24.90;;
60068;SDS011;45945;53.350;55.922;2023-05-10T05:24:34;31.63;;;23.40;;
60068;SDS011;45945;53.350;55.922;2023-05-10T05:25:35;34.88;;;24.35;;
60068;SDS011;45945;53.350;55.922;2023-05-10T05:26:36;32.40;;;23.73;;
60068;SDS011;45945;53.350;55.922;2023-05-10T05:27:37;33.00;;;23.17;;
60068;SDS011;45945;53.350;55.922;2023-05-10T05:28:38;35.05;;;24.98;;
60068;SDS011;45945;53.350;55.922;2023-05-10T05:29:39;33.00;;;23.75;;
60068;SDS011;45945;53.350;55.922;2023-05-10T05:30:40;33.85;;;24.38;;
60068;SDS011;45945;53.350;55.922;2023-05-10T05:31:41;33.25;;;23.33;;
60068;SDS011;45945;53.350;55.922;2023-05-10T05:32:41;34.53;;;23.70;;
60068;SDS011;45945;53.350;55.922;2023-05-10T05:33:42;34.92;;;23.88;;
60068;SDS011;45945;53.350;55.922;2023-05-10T05:34:46;35.67;;;25.55;;
60068;SDS011;45945;53.350;55.922;2023-05-10T05:35:47;31.65;;;23.52;;
60068;SDS011;45945;53.350;55.922;2023-05-10T05:36:51;34.33;;;24.88;;
60068;SDS011;45945;53.350;55.922;2023-05-10T05:37:52;33.85;;;24.98;;
60068;SDS011;45945;53.350;55.922;2023-05-10T05:38:53;37.80;;;26.00;;
60068;SDS011;45945;53.350;55.922;2023-05-10T05:39:53;34.65;;;25.40;;
60068;SDS011;45945;53.350;55.922;2023-05-10T05:40:55;32.38;;;21.10;;
60068;SDS011;45945;53.350;55.922;2023-05-10T05:41:56;36.35;;;26.52;;
60068;SDS011;45945;53.350;55.922;2023-05-10T05:42:57;34.13;;;25.00;;
60068;SDS011;45945;53.350;55.922;2023-05-10T05:43:58;34.63;;;24.70;;
60068;SDS011;45945;53.350;55.922;2023-05-10T05:44:58;37.45;;;27.88;;
60068;SDS011;45945;53.350;55.922;2023-05-10T05:45:59;37.22;;;26.27;;
60068;SDS011;45945;53.350;55.922;2023-05-10T05:47:00;37.53;;;26.38;;
60068;SDS011;45945;53.350;55.922;2023-05-10T05:48:01;38.30;;;26.45;;
60068;SDS011;45945;53.350;55.922;2023-05-10T05:49:03;35.20;;;25.58;;
60068;SDS011;45945;53.350;55.922;2023-05-10T05:50:04;36.80;;;26.92;;
60068;SDS011;45945;53.350;55.922;2023-05-10T05:51:05;35.92;;;27.10;;
60068;SDS011;45945;53.350;55.922;2023-05-10T05:52:06;40.70;;;28.38;;
60068;SDS011;45945;53.350;55.922;2023-05-10T05:53:07;38.80;;;26.90;;
60068;SDS011;45945;53.350;55.922;2023-05-10T05:54:09;36.38;;;27.08;;
60068;SDS011;45945;53.350;55.922;2023-05-10T05:55:10;35.20;;;25.98;;
60068;SDS011;45945;53.350;55.922;2023-05-10T05:56:11;38.95;;;28.90;;
60068;SDS011;45945;53.350;55.922;2023-05-10T05:57:12;37.00;;;27.15;;
60068;SDS011;45945;53.350;55.922;2023-05-10T05:58:13;38.50;;;28.77;;
60068;SDS011;45945;53.350;55.922;2023-05-10T05:59:14;38.80;;;27.65;;
60068;SDS011;45945;53.350;55.922;2023-05-10T06:00:15;41.17;;;29.20;;
60068;SDS011;45945;53.350;55.922;2023-05-10T06:01:16;41.60;;;28.70;;
60068;SDS011;45945;53.350;55.922;2023-05-10T06:02:17;43.47;;;28.83;;
60068;SDS011;45945;53.350;55.922;2023-05-10T06:03:18;41.08;;;29.08;;
60068;SDS011;45945;53.350;55.922;2023-05-10T06:04:19;40.60;;;30.48;;
60068;SDS011;45945;53.350;55.922;2023-05-10T06:05:20;43.90;;;32.45;;
60068;SDS011;45945;53.350;55.922;2023-05-10T06:06:21;38.55;;;28.45;;
60068;SDS011;45945;53.350;55.922;2023-05-10T06:07:22;39.47;;;28.13;;
60068;SDS011;45945;53.350;55.922;2023-05-10T06:08:23;40.72;;;30.27;;
60068;SDS011;45945;53.350;55.922;2023-05-10T06:09:23;42.95;;;29.65;;
60068;SDS011;45945;53.350;55.922;2023-05-10T06:10:25;43.47;;;31.95;;
60068;SDS011;45945;53.350;55.922;2023-05-10T06:11:26;40.28;;;29.75;;
60068;SDS011;45945;53.350;55.922;2023-05-10T06:12:27;40.22;;;30.10;;
60068;SDS011;45945;53.350;55.922;2023-05-10T06:13:27;41.92;;;28.40;;
60068;SDS011;45945;53.350;55.922;2023-05-10T06:14:32;40.42;;;30.48;;